sensor_id;sensor_type;location;lat;lon;timestamp;pressure;altitude;pressure_sealevel;temperature;humidity
33163;BME280;29282;45.656;11.302;2023-03-05T00:01:40;98099.28;;;18.72;47.45
33163;BME280;29282;45.656;11.302;2023-03-05T00:04:09;98098.47;;;18.72;47.37
33163;BME280;29282;45.656;11.302;2023-03-05T00:06:35;98093.28;;;18.70;47.46
33163;BME280;29282;45.656;11.302;2023-03-05T00:09:01;98096.38;;;18.69;47.45
33163;BME280;29282;45.656;11.302;2023-03-05T00:11:28;98092.84;;;18.68;47.44
33163;BME280;29282;45.656;11.302;2023-03-05T00:13:55;98083.81;;;18.68;47.46
33163;BME280;29282;45.656;11.302;2023-03-05T00:16:21;98093.63;;;18.69;47.42
33163;BME280;29282;45.656;11.302;2023-03-05T00:18:47;98086.56;;;18.68;47.51
33163;BME280;29282;45.656;11.302;2023-03-05T00:21:22;98080.25;;;18.67;47.35
33163;BME280;29282;45.656;11.302;2023-03-05T00:23:49;98089.31;;;18.68;47.30
33163;BME280;29282;45.656;11.302;2023-03-05T00:26:17;98089.31;;;18.68;47.46
33163;BME280;29282;45.656;11.302;2023-03-05T00:28:42;98086.56;;;18.68;47.46
33163;BME280;29282;45.656;11.302;2023-03-05T00:31:08;98083.34;;;18.66;47.44
33163;BME280;29282;45.656;11.302;2023-03-05T00:33:33;98081.75;;;18.65;47.66
33163;BME280;29282;45.656;11.302;2023-03-05T00:35:58;98082.88;;;18.64;47.54
33163;BME280;29282;45.656;11.302;2023-03-05T00:38:26;98080.13;;;18.64;47.79
33163;BME280;29282;45.656;11.302;2023-03-05T00:40:52;98083.22;;;18.62;47.85
33163;BME280;29282;45.656;11.302;2023-03-05T00:43:17;98077.72;;;18.62;47.68
33163;BME280;29282;45.656;11.302;2023-03-05T00:45:43;98081.63;;;18.61;47.72
33163;BME280;29282;45.656;11.302;2023-03-05T00:48:09;98075.31;;;18.61;47.80
33163;BME280;29282;45.656;11.302;2023-03-05T00:50:34;98077.25;;;18.60;47.51
33163;BME280;29282;45.656;11.302;2023-03-05T00:53:00;98072.13;;;18.59;47.82
33163;BME280;29282;45.656;11.302;2023-03-05T00:55:26;98080.34;;;18.59;47.72
33163;BME280;29282;45.656;11.302;2023-03-05T00:57:51;98072.94;;;18.59;47.56
33163;BME280;29282;45.656;11.302;2023-03-05T01:00:17;98079.56;;;18.58;47.57
33163;BME280;29282;45.656;11.302;2023-03-05T01:02:42;98066.97;;;18.57;47.68
33163;BME280;29282;45.656;11.302;2023-03-05T01:05:12;98068.91;;;18.57;47.58
33163;BME280;29282;45.656;11.302;2023-03-05T01:07:38;98066.97;;;18.57;47.42
33163;BME280;29282;45.656;11.302;2023-03-05T01:10:04;98065.38;;;18.56;47.49
33163;BME280;29282;45.656;11.302;2023-03-05T01:12:30;98065.72;;;18.54;47.45
33163;BME280;29282;45.656;11.302;2023-03-05T01:14:55;98064.56;;;18.55;47.26
33163;BME280;29282;45.656;11.302;2023-03-05T01:17:21;98067.19;;;18.52;47.42
33163;BME280;29282;45.656;11.302;2023-03-05T01:19:47;98067.53;;;18.50;47.41
33163;BME280;29282;45.656;11.302;2023-03-05T01:22:12;98063.53;;;18.48;47.28
33163;BME280;29282;45.656;11.302;2023-03-05T01:24:37;98056.78;;;18.45;47.06
33163;BME280;29282;45.656;11.302;2023-03-05T01:27:03;98050.81;;;18.43;47.24
33163;BME280;29282;45.656;11.302;2023-03-05T01:29:29;98050.03;;;18.43;47.31
33163;BME280;29282;45.656;11.302;2023-03-05T01:31:54;98053.56;;;18.43;47.25
33163;BME280;29282;45.656;11.302;2023-03-05T01:34:20;98054.38;;;18.44;47.12
33163;BME280;29282;45.656;11.302;2023-03-05T01:36:45;98048.44;;;18.42;47.09
33163;BME280;29282;45.656;11.302;2023-03-05T01:39:14;98049.25;;;18.42;47.07
33163;BME280;29282;45.656;11.302;2023-03-05T01:41:39;98040.53;;;18.40;46.91
33163;BME280;29282;45.656;11.302;2023-03-05T01:44:05;98042.47;;;18.40;47.05
33163;BME280;29282;45.656;11.302;2023-03-05T01:49:21;98045.22;;;18.40;46.79
33163;BME280;29282;45.656;11.302;2023-03-05T01:54:28;98041.69;;;18.39;46.89
33163;BME280;29282;45.656;11.302;2023-03-05T01:56:58;98040.88;;;18.39;46.77
33163;BME280;29282;45.656;11.302;2023-03-05T01:59:26;98039.75;;;18.40;46.68
33163;BME280;29282;45.656;11.302;2023-03-05T02:01:54;98049.13;;;18.39;46.83
33163;BME280;29282;45.656;11.302;2023-03-05T02:04:22;98044.06;;;18.41;46.76
33163;BME280;29282;45.656;11.302;2023-03-05T02:06:50;98041.34;;;18.41;46.62
33163;BME280;29282;45.656;11.302;2023-03-05T02:09:16;98045.34;;;18.43;46.55
33163;BME280;29282;45.656;11.302;2023-03-05T02:11:42;98045.34;;;18.43;46.57
33163;BME280;29282;45.656;11.302;2023-03-05T02:14:08;98036.00;;;18.44;46.66
33163;BME280;29282;45.656;11.302;2023-03-05T02:16:35;98034.03;;;18.45;46.67
33163;BME280;29282;45.656;11.302;2023-03-05T02:19:04;98037.22;;;18.47;46.60
33163;BME280;29282;45.656;11.302;2023-03-05T02:21:40;98036.09;;;18.48;46.47
33163;BME280;29282;45.656;11.302;2023-03-05T02:24:10;98029.00;;;18.47;46.38
33163;BME280;29282;45.656;11.302;2023-03-05T02:26:36;98029.94;;;18.51;46.32
33163;BME280;29282;45.656;11.302;2023-03-05T02:29:02;98024.00;;;18.49;46.33
33163;BME280;29282;45.656;11.302;2023-03-05T02:31:29;98023.63;;;18.50;46.39
33163;BME280;29282;45.656;11.302;2023-03-05T02:33:55;98020.09;;;18.50;46.30
33163;BME280;29282;45.656;11.302;2023-03-05T02:36:21;98019.75;;;18.51;46.21
33163;BME280;29282;45.656;11.302;2023-03-05T02:38:47;98020.88;;;18.50;46.49
33163;BME280;29282;45.656;11.302;2023-03-05T02:41:14;98018.97;;;18.51;46.35
33163;BME280;29282;45.656;11.302;2023-03-05T02:43:40;98024.47;;;18.51;46.23
33163;BME280;29282;45.656;11.302;2023-03-05T02:46:05;98017.81;;;18.52;46.09
33163;BME280;29282;45.656;11.302;2023-03-05T02:48:31;98008.78;;;18.51;46.29
33163;BME280;29282;45.656;11.302;2023-03-05T02:50:57;98011.88;;;18.50;46.35
33163;BME280;29282;45.656;11.302;2023-03-05T02:53:23;98004.00;;;18.48;46.15
33163;BME280;29282;45.656;11.302;2023-03-05T02:55:50;98005.56;;;18.49;46.38
33163;BME280;29282;45.656;11.302;2023-03-05T02:58:16;98000.09;;;18.49;46.30
33163;BME280;29282;45.656;11.302;2023-03-05T03:00:42;97999.63;;;18.47;46.04
33163;BME280;29282;45.656;11.302;2023-03-05T03:03:08;97997.69;;;18.48;46.15
33163;BME280;29282;45.656;11.302;2023-03-05T03:05:34;98000.78;;;18.46;46.13
33163;BME280;29282;45.656;11.302;2023-03-05T03:08:00;98001.56;;;18.47;46.29
33163;BME280;29282;45.656;11.302;2023-03-05T03:10:26;97997.22;;;18.46;46.15
33163;BME280;29282;45.656;11.302;2023-03-05T03:12:51;97999.97;;;18.46;46.26
33163;BME280;29282;45.656;11.302;2023-03-05T03:15:17;98001.94;;;18.45;46.13
33163;BME280;29282;45.656;11.302;2023-03-05T03:17:43;98000.78;;;18.46;46.10
33163;BME280;29282;45.656;11.302;2023-03-05T03:20:11;97995.66;;;18.45;46.24
33163;BME280;29282;45.656;11.302;2023-03-05T03:22:39;97994.03;;;18.44;46.10
33163;BME280;29282;45.656;11.302;2023-03-05T03:25:05;97992.91;;;18.45;46.13
33163;BME280;29282;45.656;11.302;2023-03-05T03:27:30;97996.75;;;18.44;46.12
33163;BME280;29282;45.656;11.302;2023-03-05T03:29:56;97990.16;;;18.45;46.05
33163;BME280;29282;45.656;11.302;2023-03-05T03:32:27;97990.47;;;18.43;46.18
33163;BME280;29282;45.656;11.302;2023-03-05T03:34:52;97992.91;;;18.45;46.01
33163;BME280;29282;45.656;11.302;2023-03-05T03:37:18;97998.38;;;18.45;46.00
33163;BME280;29282;45.656;11.302;2023-03-05T03:39:43;97988.22;;;18.45;46.04
33163;BME280;29282;45.656;11.302;2023-03-05T03:42:09;97994.50;;;18.46;46.00
33163;BME280;29282;45.656;11.302;2023-03-05T03:44:34;97988.53;;;18.44;46.24
33163;BME280;29282;45.656;11.302;2023-03-05T03:47:00;97990.59;;;18.47;46.05
33163;BME280;29282;45.656;11.302;2023-03-05T03:49:26;97989.34;;;18.44;46.07
33163;BME280;29282;45.656;11.302;2023-03-05T03:51:53;97984.66;;;18.45;46.05
33163;BME280;29282;45.656;11.302;2023-03-05T03:54:20;97980.41;;;18.47;45.90
33163;BME280;29282;45.656;11.302;2023-03-05T03:56:46;97979.97;;;18.45;46.08
33163;BME280;29282;45.656;11.302;2023-03-05T03:59:12;97981.25;;;18.48;45.89
33163;BME280;29282;45.656;11.302;2023-03-05T04:01:38;97987.41;;;18.45;45.96
33163;BME280;29282;45.656;11.302;2023-03-05T04:04:04;97990.16;;;18.45;46.00
33163;BME280;29282;45.656;11.302;2023-03-05T04:06:30;97983.50;;;18.46;45.72
33163;BME280;29282;45.656;11.302;2023-03-05T04:08:58;97979.19;;;18.45;46.01
33163;BME280;29282;45.656;11.302;2023-03-05T04:11:23;97984.66;;;18.45;45.91
33163;BME280;29282;45.656;11.302;2023-03-05T04:13:49;97972.53;;;18.46;45.85
33163;BME280;29282;45.656;11.302;2023-03-05T04:16:15;97981.25;;;18.48;45.61
33163;BME280;29282;45.656;11.302;2023-03-05T04:18:42;97977.22;;;18.45;45.87
33163;BME280;29282;45.656;11.302;2023-03-05T04:21:08;97983.88;;;18.44;45.92
33163;BME280;29282;45.656;11.302;2023-03-05T04:23:34;97983.06;;;18.44;45.73
33163;BME280;29282;45.656;11.302;2023-03-05T04:26:00;97984.66;;;18.45;45.97
33163;BME280;29282;45.656;11.302;2023-03-05T04:28:25;97983.06;;;18.44;45.87
33163;BME280;29282;45.656;11.302;2023-03-05T04:30:51;97977.56;;;18.44;45.76
33163;BME280;29282;45.656;11.302;2023-03-05T04:33:17;97966.94;;;18.42;45.85
33163;BME280;29282;45.656;11.302;2023-03-05T04:35:43;97973.22;;;18.43;45.73
33163;BME280;29282;45.656;11.302;2023-03-05T04:38:08;97973.59;;;18.41;45.62
33163;BME280;29282;45.656;11.302;2023-03-05T04:40:34;97976.66;;;18.40;45.80
33163;BME280;29282;45.656;11.302;2023-03-05T04:43:00;97970.38;;;18.39;45.96
33163;BME280;29282;45.656;11.302;2023-03-05T04:45:26;97970.38;;;18.39;45.72
33163;BME280;29282;45.656;11.302;2023-03-05T04:47:51;97973.91;;;18.40;45.64
33163;BME280;29282;45.656;11.302;2023-03-05T04:50:17;97978.59;;;18.39;45.78
33163;BME280;29282;45.656;11.302;2023-03-05T04:52:44;97970.72;;;18.38;45.68
33163;BME280;29282;45.656;11.302;2023-03-05T04:55:11;97964.09;;;18.39;45.66
33163;BME280;29282;45.656;11.302;2023-03-05T04:57:37;97971.53;;;18.38;45.61
33163;BME280;29282;45.656;11.302;2023-03-05T05:00:06;97974.69;;;18.40;45.56
33163;BME280;29282;45.656;11.302;2023-03-05T05:02:32;97976.66;;;18.40;45.53
33163;BME280;29282;45.656;11.302;2023-03-05T05:04:58;97972.75;;;18.41;45.52
33163;BME280;29282;45.656;11.302;2023-03-05T05:07:23;97977.81;;;18.39;45.62
33163;BME280;29282;45.656;11.302;2023-03-05T05:09:49;97973.91;;;18.40;45.66
33163;BME280;29282;45.656;11.302;2023-03-05T05:12:15;97971.28;;;18.43;45.47
33163;BME280;29282;45.656;11.302;2023-03-05T05:14:40;97972.75;;;18.41;45.44
33163;BME280;29282;45.656;11.302;2023-03-05T05:17:06;97963.41;;;18.42;45.40
33163;BME280;29282;45.656;11.302;2023-03-05T05:19:33;97963.06;;;18.43;45.29
33163;BME280;29282;45.656;11.302;2023-03-05T05:21:59;97963.06;;;18.43;45.39
33163;BME280;29282;45.656;11.302;2023-03-05T05:24:24;97965.34;;;18.41;45.58
33163;BME280;29282;45.656;11.302;2023-03-05T05:26:53;97969.22;;;18.40;45.44
33163;BME280;29282;45.656;11.302;2023-03-05T05:29:18;97970.00;;;18.41;45.58
33163;BME280;29282;45.656;11.302;2023-03-05T05:31:44;97966.16;;;18.42;45.43
33163;BME280;29282;45.656;11.302;2023-03-05T05:34:10;97973.13;;;18.39;45.38
33163;BME280;29282;45.656;11.302;2023-03-05T05:36:35;97966.16;;;18.42;45.40
33163;BME280;29282;45.656;11.302;2023-03-05T05:39:01;97976.31;;;18.41;45.41
33163;BME280;29282;45.656;11.302;2023-03-05T05:41:27;97973.13;;;18.39;45.32
33163;BME280;29282;45.656;11.302;2023-03-05T05:43:52;97975.06;;;18.39;45.33
33163;BME280;29282;45.656;11.302;2023-03-05T05:46:19;97969.56;;;18.39;45.27
33163;BME280;29282;45.656;11.302;2023-03-05T05:48:44;97976.31;;;18.41;45.47
33163;BME280;29282;45.656;11.302;2023-03-05T05:51:13;97975.50;;;18.41;45.33
33163;BME280;29282;45.656;11.302;2023-03-05T05:53:40;97980.97;;;18.41;45.37
33163;BME280;29282;45.656;11.302;2023-03-05T05:56:07;97976.31;;;18.41;45.21
33163;BME280;29282;45.656;11.302;2023-03-05T05:58:34;97974.69;;;18.40;45.41
33163;BME280;29282;45.656;11.302;2023-03-05T06:01:01;97976.66;;;18.40;45.25
33163;BME280;29282;45.656;11.302;2023-03-05T06:03:26;97979.41;;;18.40;45.33
33163;BME280;29282;45.656;11.302;2023-03-05T06:05:52;97984.88;;;18.40;45.32
33163;BME280;29282;45.656;11.302;2023-03-05T06:08:18;97984.09;;;18.39;45.33
33163;BME280;29282;45.656;11.302;2023-03-05T06:10:43;97986.03;;;18.39;45.14
33163;BME280;29282;45.656;11.302;2023-03-05T06:13:09;97997.00;;;18.39;45.21
33163;BME280;29282;45.656;11.302;2023-03-05T06:15:34;97997.81;;;18.39;45.23
33163;BME280;29282;45.656;11.302;2023-03-05T06:18:00;97991.16;;;18.40;45.12
33163;BME280;29282;45.656;11.302;2023-03-05T06:20:26;97997.81;;;18.39;45.01
33163;BME280;29282;45.656;11.302;2023-03-05T06:22:52;97996.66;;;18.40;45.05
33163;BME280;29282;45.656;11.302;2023-03-05T06:25:17;97997.00;;;18.39;45.19
33163;BME280;29282;45.656;11.302;2023-03-05T06:27:43;97999.38;;;18.40;44.96
33163;BME280;29282;45.656;11.302;2023-03-05T06:30:10;98001.34;;;18.40;45.11
33163;BME280;29282;45.656;11.302;2023-03-05T06:32:36;98000.19;;;18.41;45.12
33163;BME280;29282;45.656;11.302;2023-03-05T06:35:01;98001.81;;;18.42;45.04
33163;BME280;29282;45.656;11.302;2023-03-05T06:37:27;98002.13;;;18.40;44.91
33163;BME280;29282;45.656;11.302;2023-03-05T06:39:52;97998.28;;;18.41;44.96
33163;BME280;29282;45.656;11.302;2023-03-05T06:42:18;98002.59;;;18.42;44.90
33163;BME280;29282;45.656;11.302;2023-03-05T06:44:44;98006.50;;;18.41;44.87
33163;BME280;29282;45.656;11.302;2023-03-05T06:47:10;98010.03;;;18.42;45.02
33163;BME280;29282;45.656;11.302;2023-03-05T06:49:36;98002.94;;;18.41;44.91
33163;BME280;29282;45.656;11.302;2023-03-05T06:52:03;98007.63;;;18.40;44.83
33163;BME280;29282;45.656;11.302;2023-03-05T06:54:29;98007.63;;;18.40;44.88
33163;BME280;29282;45.656;11.302;2023-03-05T06:56:55;98000.19;;;18.41;45.01
33163;BME280;29282;45.656;11.302;2023-03-05T06:59:20;98002.94;;;18.41;44.92
33163;BME280;29282;45.656;11.302;2023-03-05T07:01:46;98010.03;;;18.42;44.93
33163;BME280;29282;45.656;11.302;2023-03-05T07:04:12;98005.66;;;18.41;44.94
33163;BME280;29282;45.656;11.302;2023-03-05T07:06:39;98008.41;;;18.41;44.89
33163;BME280;29282;45.656;11.302;2023-03-05T07:09:08;97999.06;;;18.42;44.99
33163;BME280;29282;45.656;11.302;2023-03-05T07:11:35;97999.88;;;18.42;44.78
33163;BME280;29282;45.656;11.302;2023-03-05T07:14:01;97997.13;;;18.42;44.92
33163;BME280;29282;45.656;11.302;2023-03-05T07:16:29;97997.13;;;18.42;44.87
33163;BME280;29282;45.656;11.302;2023-03-05T07:18:57;97994.38;;;18.42;44.79
33163;BME280;29282;45.656;11.302;2023-03-05T07:21:25;97999.06;;;18.42;44.87
33163;BME280;29282;45.656;11.302;2023-03-05T07:23:54;97995.97;;;18.43;44.88
33163;BME280;29282;45.656;11.302;2023-03-05T07:26:21;97995.97;;;18.43;44.73
33163;BME280;29282;45.656;11.302;2023-03-05T07:28:46;97996.75;;;18.44;44.81
33163;BME280;29282;45.656;11.302;2023-03-05T07:31:17;97996.75;;;18.44;44.64
33163;BME280;29282;45.656;11.302;2023-03-05T07:33:48;97994.84;;;18.44;44.73
33163;BME280;29282;45.656;11.302;2023-03-05T07:36:15;97995.97;;;18.43;44.87
33163;BME280;29282;45.656;11.302;2023-03-05T07:38:41;97989.34;;;18.44;44.83
33163;BME280;29282;45.656;11.302;2023-03-05T07:41:09;97990.81;;;18.54;44.60
33163;BME280;29282;45.656;11.302;2023-03-05T07:43:35;97992.56;;;18.59;44.44
33163;BME280;29282;45.656;11.302;2023-03-05T07:46:08;97989.69;;;18.67;44.34
33163;BME280;29282;45.656;11.302;2023-03-05T07:48:34;97989.38;;;18.81;44.25
33163;BME280;29282;45.656;11.302;2023-03-05T07:51:07;97989.94;;;18.99;43.93
33163;BME280;29282;45.656;11.302;2023-03-05T07:53:33;97986.25;;;19.07;43.95
33163;BME280;29282;45.656;11.302;2023-03-05T07:55:59;97987.72;;;19.17;43.95
33163;BME280;29282;45.656;11.302;2023-03-05T07:58:25;97990.59;;;19.20;43.94
33163;BME280;29282;45.656;11.302;2023-03-05T08:00:51;97990.00;;;19.27;44.04
33163;BME280;29282;45.656;11.302;2023-03-05T08:03:16;97986.53;;;19.30;44.04
33163;BME280;29282;45.656;11.302;2023-03-05T08:05:42;97987.09;;;19.36;44.00
33163;BME280;29282;45.656;11.302;2023-03-05T08:08:08;97975.44;;;19.39;43.92
33163;BME280;29282;45.656;11.302;2023-03-05T08:10:35;97977.13;;;19.43;43.89
33163;BME280;29282;45.656;11.302;2023-03-05T08:13:00;97975.63;;;19.46;43.95
33163;BME280;29282;45.656;11.302;2023-03-05T08:15:26;97975.72;;;19.49;44.06
33163;BME280;29282;45.656;11.302;2023-03-05T08:17:52;97967.16;;;19.51;43.92
33163;BME280;29282;45.656;11.302;2023-03-05T08:20:18;97968.75;;;19.52;44.23
33163;BME280;29282;45.656;11.302;2023-03-05T08:22:44;97974.69;;;19.54;43.77
33163;BME280;29282;45.656;11.302;2023-03-05T08:25:10;97973.53;;;19.55;43.92
33163;BME280;29282;45.656;11.302;2023-03-05T08:27:41;97961.06;;;19.58;43.89
33163;BME280;29282;45.656;11.302;2023-03-05T08:30:09;97964.59;;;19.58;44.04
33163;BME280;29282;45.656;11.302;2023-03-05T08:32:35;97968.13;;;19.59;44.10
33163;BME280;29282;45.656;11.302;2023-03-05T08:35:01;97959.56;;;19.60;43.96
33163;BME280;29282;45.656;11.302;2023-03-05T08:37:29;97958.03;;;19.63;43.95
33163;BME280;29282;45.656;11.302;2023-03-05T08:39:54;97960.34;;;19.61;43.96
33163;BME280;29282;45.656;11.302;2023-03-05T08:42:21;97957.25;;;19.62;43.88
33163;BME280;29282;45.656;11.302;2023-03-05T08:44:46;97954.19;;;19.64;43.93
33163;BME280;29282;45.656;11.302;2023-03-05T08:47:12;97951.88;;;19.66;43.96
33163;BME280;29282;45.656;11.302;2023-03-05T08:49:37;97947.16;;;19.66;43.92
33163;BME280;29282;45.656;11.302;2023-03-05T08:52:03;97950.00;;;19.70;43.86
33163;BME280;29282;45.656;11.302;2023-03-05T08:54:29;97950.00;;;19.70;43.87
33163;BME280;29282;45.656;11.302;2023-03-05T08:56:54;97945.25;;;19.67;43.96
33163;BME280;29282;45.656;11.302;2023-03-05T08:59:20;97951.06;;;19.65;44.13
33163;BME280;29282;45.656;11.302;2023-03-05T09:01:45;97944.09;;;19.68;43.93
33163;BME280;29282;45.656;11.302;2023-03-05T09:04:12;97945.34;;;19.70;44.05
33163;BME280;29282;45.656;11.302;2023-03-05T09:06:37;97943.72;;;19.69;43.91
33163;BME280;29282;45.656;11.302;2023-03-05T09:09:07;97945.06;;;19.76;43.92
33163;BME280;29282;45.656;11.302;2023-03-05T09:11:34;97948.00;;;19.83;43.76
33163;BME280;29282;45.656;11.302;2023-03-05T09:14:04;97944.47;;;19.82;43.76
33163;BME280;29282;45.656;11.302;2023-03-05T09:16:29;97941.38;;;19.84;43.74
33163;BME280;29282;45.656;11.302;2023-03-05T09:18:55;97932.06;;;19.88;43.38
33163;BME280;29282;45.656;11.302;2023-03-05T09:21:21;97921.06;;;19.88;43.59
33163;BME280;29282;45.656;11.302;2023-03-05T09:23:47;97925.06;;;19.91;43.56
33163;BME280;29282;45.656;11.302;2023-03-05T09:26:13;97922.66;;;19.89;43.61
33163;BME280;29282;45.656;11.302;2023-03-05T09:28:41;97918.78;;;19.90;43.58
33163;BME280;29282;45.656;11.302;2023-03-05T09:31:08;97916.81;;;19.91;43.44
33163;BME280;29282;45.656;11.302;2023-03-05T09:33:34;97913.28;;;19.90;43.68
33163;BME280;29282;45.656;11.302;2023-03-05T09:36:01;97918.41;;;19.92;43.65
33163;BME280;29282;45.656;11.302;2023-03-05T09:38:28;97910.16;;;19.92;43.80
33163;BME280;29282;45.656;11.302;2023-03-05T09:43:47;97917.25;;;19.93;43.86
33163;BME280;29282;45.656;11.302;2023-03-05T09:46:30;97912.56;;;19.93;43.87
33163;BME280;29282;45.656;11.302;2023-03-05T09:51:44;97904.75;;;19.95;43.92
33163;BME280;29282;45.656;11.302;2023-03-05T09:54:19;97902.00;;;19.95;43.77
33163;BME280;29282;45.656;11.302;2023-03-05T09:56:53;97895.25;;;19.93;43.76
33163;BME280;29282;45.656;11.302;2023-03-05T10:01:55;97893.31;;;19.93;43.92
33163;BME280;29282;45.656;11.302;2023-03-05T10:04:28;97886.75;;;19.98;43.74
33163;BME280;29282;45.656;11.302;2023-03-05T10:07:17;97884.34;;;20.28;43.02
33163;BME280;29282;45.656;11.302;2023-03-05T10:10:15;97878.75;;;20.56;42.42
33163;BME280;29282;45.656;11.302;2023-03-05T10:12:45;97880.59;;;20.52;42.53
33163;BME280;29282;45.656;11.302;2023-03-05T10:15:36;97880.25;;;20.54;42.62
33163;BME280;29282;45.656;11.302;2023-03-05T10:18:36;97879.53;;;20.41;43.25
33163;BME280;29282;45.656;11.302;2023-03-05T10:27:05;97872.81;;;20.23;43.94
33163;BME280;29282;45.656;11.302;2023-03-05T10:30:06;97868.84;;;20.20;44.00
33163;BME280;29282;45.656;11.302;2023-03-05T10:32:51;97868.84;;;20.20;44.10
33163;BME280;29282;45.656;11.302;2023-03-05T10:36:11;97872.53;;;20.28;44.13
33163;BME280;29282;45.656;11.302;2023-03-05T10:46:35;97858.94;;;20.35;44.02
33163;BME280;29282;45.656;11.302;2023-03-05T10:49:03;97864.28;;;20.28;44.39
33163;BME280;29282;45.656;11.302;2023-03-05T10:51:38;97859.50;;;20.25;44.47
33163;BME280;29282;45.656;11.302;2023-03-05T10:56:43;97856.66;;;20.37;44.14
33163;BME280;29282;45.656;11.302;2023-03-05T10:59:09;97853.03;;;20.68;43.37
33163;BME280;29282;45.656;11.302;2023-03-05T11:01:34;97850.59;;;20.63;43.66
33163;BME280;29282;45.656;11.302;2023-03-05T11:04:07;97850.78;;;20.54;44.23
33163;BME280;29282;45.656;11.302;2023-03-05T11:06:41;97845.00;;;20.44;44.90
33163;BME280;29282;45.656;11.302;2023-03-05T11:09:29;97845.66;;;20.37;44.96
33163;BME280;29282;45.656;11.302;2023-03-05T11:14:32;97835.91;;;20.24;46.04
33163;BME280;29282;45.656;11.302;2023-03-05T11:17:13;97834.28;;;20.23;45.85
33163;BME280;29282;45.656;11.302;2023-03-05T11:19:47;97826.16;;;20.46;45.24
33163;BME280;29282;45.656;11.302;2023-03-05T11:22:23;97821.25;;;20.71;44.77
33163;BME280;29282;45.656;11.302;2023-03-05T11:25:15;97811.53;;;20.57;44.69
33163;BME280;29282;45.656;11.302;2023-03-05T11:27:55;97816.59;;;20.39;45.23
33163;BME280;29282;45.656;11.302;2023-03-05T11:30:36;97805.81;;;20.31;45.34
33163;BME280;29282;45.656;11.302;2023-03-05T11:35:36;97797.25;;;20.16;45.97
33163;BME280;29282;45.656;11.302;2023-03-05T11:38:05;97794.03;;;20.14;45.99
33163;BME280;29282;45.656;11.302;2023-03-05T11:40:34;97799.78;;;20.25;45.92
33163;BME280;29282;45.656;11.302;2023-03-05T11:43:03;97789.06;;;20.55;45.07
33163;BME280;29282;45.656;11.302;2023-03-05T11:45:31;97789.50;;;20.57;45.13
33163;BME280;29282;45.656;11.302;2023-03-05T11:48:24;97788.44;;;20.46;45.26
33163;BME280;29282;45.656;11.302;2023-03-05T11:50:54;97779.88;;;20.32;45.57
33163;BME280;29282;45.656;11.302;2023-03-05T11:53:33;97779.28;;;20.23;46.05
33163;BME280;29282;45.656;11.302;2023-03-05T11:56:26;97777.09;;;20.12;46.15
33163;BME280;29282;45.656;11.302;2023-03-05T11:59:02;97773.00;;;20.06;46.11
33163;BME280;29282;45.656;11.302;2023-03-05T12:01:35;97767.09;;;20.04;46.16
33163;BME280;29282;45.656;11.302;2023-03-05T12:04:05;97766.28;;;20.39;45.53
33163;BME280;29282;45.656;11.302;2023-03-05T12:06:49;97760.19;;;20.49;45.11
33163;BME280;29282;45.656;11.302;2023-03-05T12:11:59;97763.28;;;20.28;45.60
33163;BME280;29282;45.656;11.302;2023-03-05T12:14:30;97765.44;;;20.19;46.05
33163;BME280;29282;45.656;11.302;2023-03-05T12:17:10;97757.41;;;20.10;46.23
33163;BME280;29282;45.656;11.302;2023-03-05T12:22:20;97755.38;;;20.07;46.31
33163;BME280;29282;45.656;11.302;2023-03-05T12:24:46;97754.47;;;20.03;46.33
33163;BME280;29282;45.656;11.302;2023-03-05T12:27:14;97743.97;;;20.25;46.05
33163;BME280;29282;45.656;11.302;2023-03-05T12:29:47;97733.25;;;20.39;45.34
33163;BME280;29282;45.656;11.302;2023-03-05T12:47:46;97704.41;;;19.94;46.32
33163;BME280;29282;45.656;11.302;2023-03-05T12:52:56;97697.16;;;20.40;45.00
33163;BME280;29282;45.656;11.302;2023-03-05T13:00:36;97685.66;;;20.00;46.30
33163;BME280;29282;45.656;11.302;2023-03-05T13:03:08;97683.13;;;19.91;46.26
33163;BME280;29282;45.656;11.302;2023-03-05T13:05:36;97689.34;;;19.88;46.30
33163;BME280;29282;45.656;11.302;2023-03-05T13:08:20;97686.13;;;19.86;46.35
33163;BME280;29282;45.656;11.302;2023-03-05T13:10:58;97684.56;;;19.85;46.34
33163;BME280;29282;45.656;11.302;2023-03-05T13:13:26;97689.00;;;20.09;45.57
33163;BME280;29282;45.656;11.302;2023-03-05T13:15:53;97680.97;;;20.19;45.28
33163;BME280;29282;45.656;11.302;2023-03-05T13:18:24;97674.53;;;20.12;45.49
33163;BME280;29282;45.656;11.302;2023-03-05T13:21:07;97674.72;;;20.03;45.77
33163;BME280;29282;45.656;11.302;2023-03-05T13:23:37;97664.66;;;19.91;45.92
33163;BME280;29282;45.656;11.302;2023-03-05T13:26:18;97673.56;;;19.85;46.06
33163;BME280;29282;45.656;11.302;2023-03-05T13:29:04;97674.28;;;19.82;46.06
33163;BME280;29282;45.656;11.302;2023-03-05T13:31:31;97668.00;;;19.81;46.19
33163;BME280;29282;45.656;11.302;2023-03-05T13:36:35;97660.00;;;19.76;46.35
33163;BME280;29282;45.656;11.302;2023-03-05T13:39:02;97656.03;;;19.74;46.35
33163;BME280;29282;45.656;11.302;2023-03-05T13:41:30;97666.59;;;19.71;46.33
33163;BME280;29282;45.656;11.302;2023-03-05T13:43:58;97662.69;;;19.73;46.48
33163;BME280;29282;45.656;11.302;2023-03-05T13:46:32;97657.88;;;19.69;46.47
33163;BME280;29282;45.656;11.302;2023-03-05T13:51:54;97662.97;;;19.67;46.42
33163;BME280;29282;45.656;11.302;2023-03-05T13:54:21;97655.50;;;19.68;46.50
33163;BME280;29282;45.656;11.302;2023-03-05T13:57:02;97654.34;;;19.69;46.51
33163;BME280;29282;45.656;11.302;2023-03-05T13:59:31;97654.00;;;19.70;46.62
33163;BME280;29282;45.656;11.302;2023-03-05T14:02:00;97652.41;;;19.69;46.40
33163;BME280;29282;45.656;11.302;2023-03-05T14:04:29;97647.69;;;19.70;46.48
33163;BME280;29282;45.656;11.302;2023-03-05T14:07:04;97649.31;;;19.71;46.38